createdAt,value
2022-10-05T00:01:21.604Z,96.3
2022-10-05T00:03:30.310Z,96.4
2022-10-05T00:05:36.117Z,96.4
2022-10-05T00:07:41.893Z,96.5
2022-10-05T00:09:47.687Z,96.5
2022-10-05T00:18:13.896Z,96.6
2022-10-05T00:20:19.709Z,96.6
2022-10-05T00:22:25.520Z,96.5
2022-10-05T00:24:55.002Z,96.5
2022-10-05T00:27:00.824Z,96.5
2022-10-05T00:29:06.639Z,96.5
2022-10-05T00:33:21.210Z,96.6
2022-10-05T00:35:27.027Z,96.7
2022-10-05T00:39:38.622Z,96.8
2022-10-05T00:43:50.254Z,96.8
2022-10-05T00:45:59.126Z,96.8
2022-10-05T00:48:04.821Z,96.8
2022-10-05T00:50:10.640Z,96.9
2022-10-05T00:52:16.459Z,96.9
2022-10-05T00:54:22.262Z,96.9
2022-10-05T00:56:28.095Z,97
2022-10-05T00:58:33.898Z,97
2022-10-05T01:00:42.654Z,97.1
2022-10-05T01:07:00.142Z,97.2
2022-10-05T01:09:05.913Z,97.2
2022-10-05T01:13:17.536Z,97.3
2022-10-05T01:15:26.304Z,97.4
2022-10-05T01:19:37.950Z,97.4
2022-10-05T01:20:42.325Z,97.4
2022-10-05T01:22:48.145Z,97.4
2022-10-05T01:24:54.299Z,97.4
2022-10-05T01:27:00.094Z,97.5
2022-10-05T01:29:10.538Z,97.6
2022-10-05T01:33:22.052Z,97.6
2022-10-05T01:35:27.881Z,97.6
2022-10-05T01:43:54.106Z,98
2022-10-05T01:45:59.954Z,98
2022-10-05T01:48:05.687Z,98
2022-10-05T01:50:11.497Z,98.2
2022-10-05T01:52:17.304Z,98.2
2022-10-05T01:54:23.099Z,98.3
2022-10-05T01:56:28.908Z,98.4
2022-10-05T01:58:37.691Z,98.6
2022-10-05T02:00:43.608Z,98.7
2022-10-05T02:02:49.280Z,98.8
2022-10-05T02:05:02.063Z,98.8
2022-10-05T02:07:00.929Z,98.9
2022-10-05T02:09:06.723Z,98.9
2022-10-05T02:15:27.128Z,99.3
2022-10-05T02:17:32.908Z,99.3
2022-10-05T02:18:37.286Z,99.5
2022-10-05T02:22:48.928Z,99.6
2022-10-05T02:24:54.734Z,99.7
2022-10-05T02:27:03.510Z,99.8
2022-10-05T02:29:09.312Z,99.8
2022-10-05T02:31:15.205Z,99.9
2022-10-05T02:33:20.939Z,99.9
2022-10-05T02:35:26.745Z,99.9
2022-10-05T02:37:32.572Z,99.9
2022-10-05T02:39:38.375Z,99.9
2022-10-05T02:41:47.140Z,99.9
2022-10-05T02:45:58.827Z,99.9
2022-10-05T02:48:04.577Z,99.9
2022-10-05T02:50:10.375Z,99.9
2022-10-05T02:54:21.994Z,99.9
2022-10-05T02:56:30.903Z,99.9
2022-10-05T02:58:36.587Z,99.9
2022-10-05T03:00:42.431Z,99.9
2022-10-05T03:02:48.234Z,99.9
2022-10-05T03:04:54.019Z,99.9
2022-10-05T03:06:59.811Z,99.9
2022-10-05T03:09:05.619Z,99.9
2022-10-05T03:11:14.372Z,99.9
2022-10-05T03:13:20.202Z,99.9
2022-10-05T03:15:25.984Z,99.9
2022-10-05T03:16:30.437Z,99.9
2022-10-05T03:18:36.195Z,99.9
2022-10-05T03:20:42.001Z,99.9
2022-10-05T03:22:47.812Z,99.9
2022-10-05T03:24:56.572Z,99.9
2022-10-05T03:27:02.396Z,99.9
2022-10-05T03:29:08.195Z,99.9
2022-10-05T03:33:19.811Z,99.9
2022-10-05T03:35:25.605Z,99.9
2022-10-05T03:37:31.404Z,99.9
2022-10-05T03:39:40.195Z,99.9
2022-10-05T03:43:51.781Z,99.9
2022-10-05T03:45:57.600Z,99.9
2022-10-05T03:48:03.403Z,99.9
2022-10-05T03:50:09.191Z,99.9
2022-10-05T03:52:15.023Z,99.9
2022-10-05T03:56:29.588Z,99.9
2022-10-05T03:58:35.371Z,99.9
2022-10-05T04:00:41.161Z,99.9
2022-10-05T04:02:47.038Z,99.9
2022-10-05T04:04:52.778Z,99.9
2022-10-05T04:06:58.576Z,99.9
2022-10-05T04:13:18.959Z,99.9
2022-10-05T04:15:44.720Z,99.9
2022-10-05T04:17:50.565Z,99.9
2022-10-05T04:19:56.325Z,99.9
2022-10-05T04:24:10.914Z,99.9
2022-10-05T04:26:16.702Z,99.9
2022-10-05T04:28:22.635Z,99.9
2022-10-05T04:30:28.316Z,99.9
2022-10-05T04:32:34.130Z,99.9
2022-10-05T04:34:39.959Z,99.9
2022-10-05T04:36:48.979Z,99.9
2022-10-05T04:38:54.510Z,99.9
2022-10-05T04:41:00.302Z,99.9
2022-10-05T04:43:06.094Z,99.9
2022-10-05T04:45:11.906Z,99.9
2022-10-05T04:47:17.724Z,99.9
2022-10-05T04:49:23.543Z,99.9
2022-10-05T04:51:32.304Z,99.9
2022-10-05T04:53:38.129Z,99.9
2022-10-05T04:55:43.909Z,99.9
2022-10-05T04:57:49.715Z,99.9
2022-10-05T04:59:55.548Z,99.9
2022-10-05T05:02:01.345Z,99.9
2022-10-05T05:04:07.229Z,99.9
2022-10-05T05:06:17.804Z,99.9
2022-10-05T05:08:21.734Z,99.9
2022-10-05T05:10:27.542Z,99.9
2022-10-05T05:13:37.773Z,99.9
2022-10-05T05:17:49.324Z,99.9
2022-10-05T05:19:58.103Z,99.9
2022-10-05T05:22:03.919Z,99.9
2022-10-05T05:24:09.688Z,99.9
2022-10-05T05:26:15.498Z,99.9
2022-10-05T05:28:21.379Z,99.9
2022-10-05T05:30:27.111Z,99.9
2022-10-05T05:32:32.916Z,99.9
2022-10-05T05:34:41.663Z,99.9
2022-10-05T05:36:47.831Z,99.9
2022-10-05T05:38:53.278Z,99.9
2022-10-05T05:40:59.067Z,99.9
2022-10-05T05:43:04.891Z,99.9
2022-10-05T05:45:10.682Z,99.9
2022-10-05T05:47:16.491Z,99.9
2022-10-05T05:49:25.273Z,99.9
2022-10-05T05:51:31.072Z,99.9
2022-10-05T05:55:42.662Z,99.9
2022-10-05T06:04:08.859Z,99.9
2022-10-05T06:06:14.677Z,99.9
2022-10-05T06:09:24.837Z,99.9
2022-10-05T06:11:30.647Z,99.9
2022-10-05T06:13:36.475Z,99.9
2022-10-05T06:15:42.250Z,99.9
2022-10-05T06:17:51.059Z,99.9
2022-10-05T06:20:01.108Z,99.9
2022-10-05T06:22:02.676Z,99.9
2022-10-05T06:24:08.470Z,99.9
2022-10-05T06:26:14.278Z,99.9
2022-10-05T06:28:20.209Z,99.9
2022-10-05T06:30:25.881Z,99.9
2022-10-05T06:34:40.459Z,99.9
2022-10-05T06:36:46.498Z,99.9
2022-10-05T06:38:52.052Z,99.9
2022-10-05T06:40:57.858Z,99.9
2022-10-05T06:43:03.687Z,99.9
2022-10-05T06:47:18.278Z,99.9
2022-10-05T06:49:24.068Z,99.9
2022-10-05T06:51:29.886Z,99.9
2022-10-05T06:53:35.700Z,99.9
2022-10-05T06:55:41.532Z,99.9
2022-10-05T06:57:47.300Z,99.9
2022-10-05T06:59:53.116Z,99.9
2022-10-05T07:02:01.988Z,99.9
2022-10-05T07:04:07.739Z,99.9
2022-10-05T07:06:13.539Z,99.9
2022-10-05T07:07:17.936Z,99.9
2022-10-05T07:13:35.352Z,99.9
2022-10-05T07:15:44.093Z,99.9
2022-10-05T07:19:55.700Z,99.9
2022-10-05T07:22:01.552Z,99.9
2022-10-05T07:24:07.316Z,99.9
2022-10-05T07:26:13.131Z,99.9
2022-10-05T07:30:27.694Z,99.9
2022-10-05T07:32:35.111Z,99.9
2022-10-05T07:34:40.865Z,99.9
2022-10-05T07:38:52.518Z,99.9
2022-10-05T07:40:58.283Z,99.9
2022-10-05T07:43:04.081Z,99.9
2022-10-05T07:45:12.892Z,99.9
2022-10-05T07:47:18.698Z,99.9
2022-10-05T07:53:36.101Z,99.9
2022-10-05T07:55:41.923Z,99.9
2022-10-05T07:59:56.526Z,99.8
2022-10-05T08:02:02.455Z,99.8
2022-10-05T08:04:08.152Z,99.8
2022-10-05T08:15:05.646Z,99.3
2022-10-05T08:19:17.222Z,99.3
2022-10-05T08:21:23.042Z,99.3
2022-10-05T08:23:28.836Z,99.2
2022-10-05T08:25:34.660Z,99.2
2022-10-05T08:27:43.442Z,99.1
2022-10-05T08:31:55.030Z,98.9
2022-10-05T08:38:12.458Z,98.8
2022-10-05T08:40:18.266Z,98.7
2022-10-05T08:42:27.054Z,98.7
2022-10-05T08:44:32.863Z,98.6
2022-10-05T08:46:38.861Z,98.6
2022-10-05T08:48:44.487Z,98.4
2022-10-05T08:50:50.288Z,98.3
2022-10-05T08:52:56.101Z,98.1
2022-10-05T08:55:01.894Z,97.9
2022-10-05T08:57:10.704Z,97.5
2022-10-05T08:59:16.502Z,97.5
2022-10-05T09:01:22.393Z,97.3
2022-10-05T09:02:26.798Z,97.2
2022-10-05T09:04:32.521Z,97.1
2022-10-05T09:06:38.345Z,97.1
2022-10-05T09:08:44.150Z,97
2022-10-05T09:10:52.927Z,96.8
2022-10-05T09:12:58.728Z,96.8
2022-10-05T09:15:24.905Z,96.8
2022-10-05T09:17:10.344Z,96.7
2022-10-05T09:19:16.172Z,96.6
2022-10-05T09:21:21.962Z,96.5
2022-10-05T09:25:36.574Z,96.4
2022-10-05T09:27:42.389Z,96.3
2022-10-05T09:31:53.997Z,96.2
2022-10-05T09:36:05.612Z,96.1
2022-10-05T09:38:11.425Z,96
2022-10-05T09:40:20.191Z,95.9
2022-10-05T09:42:26.010Z,95.8
2022-10-05T09:44:31.822Z,95.9
2022-10-05T09:46:37.827Z,95.8
2022-10-05T09:48:43.435Z,95.9
2022-10-05T09:50:49.242Z,96
2022-10-05T09:52:55.067Z,96.1
2022-10-05T09:55:03.837Z,96.3
2022-10-05T09:59:15.435Z,96.4
2022-10-05T10:00:19.840Z,96.5
2022-10-05T10:02:25.791Z,96.4
2022-10-05T10:04:31.457Z,96.4
2022-10-05T10:06:37.257Z,96.4
2022-10-05T10:08:46.043Z,96.2
2022-10-05T10:10:51.895Z,96.1
2022-10-05T10:12:57.688Z,96.1
2022-10-05T10:15:03.479Z,96
2022-10-05T10:17:09.277Z,95.9
2022-10-05T10:19:15.101Z,95.8
2022-10-05T10:21:20.882Z,95.6
2022-10-05T10:23:29.683Z,95.3
2022-10-05T10:25:35.482Z,95.1
2022-10-05T10:27:41.276Z,94.9
2022-10-05T10:29:47.084Z,94.9
2022-10-05T10:36:06.924Z,94.5
2022-10-05T10:38:13.270Z,94.2
2022-10-05T10:42:26.250Z,93.9
2022-10-05T10:44:30.657Z,93.8
2022-10-05T10:46:36.540Z,93.8
2022-10-05T10:48:42.269Z,93.7
2022-10-05T10:50:48.094Z,93.7
2022-10-05T10:52:56.856Z,93.7
2022-10-05T10:55:02.677Z,93.6
2022-10-05T10:57:08.468Z,93.6
2022-10-05T10:58:16.062Z,93.7
2022-10-05T11:00:18.679Z,93.7
2022-10-05T11:02:24.545Z,93.7
2022-10-05T11:04:30.263Z,93.7
2022-10-05T11:06:39.081Z,93.8
2022-10-05T11:08:44.857Z,93.8
2022-10-05T11:10:50.640Z,93.8
2022-10-05T11:12:56.448Z,93.7
2022-10-05T11:15:02.243Z,93.7
2022-10-05T11:17:08.055Z,93.7
2022-10-05T11:19:13.840Z,93.6
2022-10-05T11:21:22.616Z,93.5
2022-10-05T11:25:34.317Z,93.3
2022-10-05T11:29:45.791Z,93.2
2022-10-05T11:31:52.249Z,93.2
2022-10-05T11:36:06.177Z,93
2022-10-05T11:38:11.989Z,93
2022-10-05T11:40:17.802Z,93.1
2022-10-05T11:42:23.616Z,93.1
2022-10-05T11:44:29.389Z,93.2
2022-10-05T11:46:35.256Z,93.1
2022-10-05T11:48:41.013Z,93.1
2022-10-05T11:50:49.799Z,92.7
2022-10-05T11:52:55.607Z,92.6
2022-10-05T11:55:12.082Z,92.5
2022-10-05T12:01:44.246Z,92.4
2022-10-05T12:03:53.173Z,92.2
2022-10-05T12:05:58.836Z,92.2
2022-10-05T12:08:04.636Z,92.2
2022-10-05T12:10:10.425Z,92.1
2022-10-05T12:12:16.214Z,92.1
2022-10-05T12:14:21.998Z,92.1
2022-10-05T12:18:36.593Z,92.3
2022-10-05T12:20:42.382Z,92.3
2022-10-05T12:22:48.210Z,92.4
2022-10-05T12:24:54.004Z,92.5
2022-10-05T12:26:59.778Z,92.6
2022-10-05T12:29:05.574Z,92.4
2022-10-05T12:31:11.488Z,92.4
2022-10-05T12:33:20.164Z,92.3
2022-10-05T12:35:43.756Z,92.2
2022-10-05T12:37:31.754Z,92.1
2022-10-05T12:39:37.557Z,92.2
2022-10-05T12:41:43.340Z,92.1
2022-10-05T12:43:49.127Z,92.1
2022-10-05T12:45:55.015Z,92
2022-10-05T12:48:03.717Z,91.8
2022-10-05T12:50:09.486Z,91.7
2022-10-05T12:52:15.273Z,91.7
2022-10-05T12:55:25.463Z,91.5
2022-10-05T13:01:45.889Z,91.2
2022-10-05T13:03:51.588Z,91.2
2022-10-05T13:10:08.950Z,91.1
2022-10-05T13:12:14.741Z,91.1
2022-10-05T13:14:20.508Z,91.1
2022-10-05T13:16:29.389Z,91.2
2022-10-05T13:18:35.074Z,91.2
2022-10-05T13:22:46.677Z,91.3
2022-10-05T13:24:52.477Z,91.2
2022-10-05T13:26:58.256Z,91.1
2022-10-05T13:29:04.070Z,91
2022-10-05T13:31:12.882Z,90.9
2022-10-05T13:33:18.627Z,90.8
2022-10-05T13:35:26.019Z,90.9
2022-10-05T13:37:31.758Z,90.7
2022-10-05T13:39:37.531Z,90.7
2022-10-05T13:41:43.323Z,90.7
2022-10-05T13:45:57.931Z,90.7
2022-10-05T13:48:03.694Z,90.9
2022-10-05T13:50:09.487Z,91
2022-10-05T13:51:14.170Z,91.1
2022-10-05T13:55:25.434Z,91.2
2022-10-05T14:01:45.819Z,91.1
2022-10-05T14:03:51.549Z,91.1
2022-10-05T14:05:57.350Z,91.1
2022-10-05T14:08:03.135Z,91.1
2022-10-05T14:10:08.969Z,91.1
2022-10-05T14:12:14.734Z,91.1
2022-10-05T14:14:23.499Z,91.1
2022-10-05T14:16:29.511Z,91
2022-10-05T14:18:35.071Z,91
2022-10-05T14:20:40.878Z,91
2022-10-05T14:22:46.654Z,91
2022-10-05T14:24:52.438Z,91
2022-10-05T14:29:06.999Z,90.9
2022-10-05T14:31:13.304Z,90.9
2022-10-05T14:33:18.565Z,90.9
2022-10-05T14:35:24.374Z,90.9
2022-10-05T14:37:30.165Z,90.9
2022-10-05T14:39:35.935Z,90.9
2022-10-05T14:41:41.763Z,91
2022-10-05T14:45:56.381Z,91.2
2022-10-05T14:48:02.088Z,91.1
2022-10-05T14:49:06.477Z,91.1
2022-10-05T14:51:12.286Z,91.1
2022-10-05T14:53:18.066Z,91.1
2022-10-05T14:55:23.834Z,91
2022-10-05T14:57:32.618Z,91
2022-10-05T15:01:44.317Z,91.2
2022-10-05T15:03:50.033Z,91.1
2022-10-05T15:05:55.794Z,91.2
2022-10-05T15:08:01.599Z,91.2
2022-10-05T15:10:07.481Z,91.3
2022-10-05T15:14:21.961Z,91.5
2022-10-05T15:18:33.562Z,91.6
2022-10-05T15:20:39.349Z,91.6
2022-10-05T15:22:45.144Z,91.7
2022-10-05T15:24:50.951Z,91.6
2022-10-05T15:33:17.157Z,91.6
2022-10-05T15:35:22.953Z,91.7
2022-10-05T15:37:28.766Z,91.7
2022-10-05T15:39:34.543Z,91.8
2022-10-05T15:41:43.330Z,91.8
2022-10-05T15:43:49.100Z,91.8
2022-10-05T15:45:54.971Z,91.6
2022-10-05T15:50:31.934Z,91.2
2022-10-05T15:54:46.503Z,91.1
2022-10-05T15:56:52.327Z,91.1
2022-10-05T15:58:58.142Z,91.2
2022-10-05T16:01:04.091Z,91.2
2022-10-05T16:03:09.759Z,91.2
2022-10-05T16:05:15.544Z,91.2
2022-10-05T16:07:21.357Z,91.1
2022-10-05T16:09:30.132Z,91
2022-10-05T16:11:35.923Z,90.9
2022-10-05T16:13:41.728Z,90.8
2022-10-05T16:15:47.534Z,90.7
2022-10-05T16:17:53.326Z,90.5
2022-10-05T16:19:59.113Z,90.4
2022-10-05T16:22:04.937Z,90.2
2022-10-05T16:24:13.680Z,90
2022-10-05T16:30:31.188Z,89.9
2022-10-05T16:32:36.905Z,89.9
2022-10-05T16:34:42.697Z,89.9
2022-10-05T16:41:03.087Z,89.4
2022-10-05T16:44:13.285Z,88.8
2022-10-05T16:46:21.906Z,88.5
2022-10-05T16:48:25.346Z,88.4
2022-10-05T16:50:30.682Z,88.2
2022-10-05T16:52:39.455Z,88
2022-10-05T16:54:47.857Z,88.1
2022-10-05T16:56:51.063Z,88.2
2022-10-05T17:01:02.720Z,88.6
2022-10-05T17:03:08.488Z,88.7
2022-10-05T17:05:14.301Z,88.9
2022-10-05T17:07:23.092Z,89.3
2022-10-05T17:11:34.726Z,89.6
2022-10-05T17:13:40.503Z,89.8
2022-10-05T17:15:46.444Z,89.9
2022-10-05T17:17:52.115Z,90.1
2022-10-05T17:19:57.996Z,90.1
2022-10-05T17:22:06.714Z,90.4
2022-10-05T17:24:12.523Z,90.4
2022-10-05T17:28:24.437Z,90.5
2022-10-05T17:30:29.916Z,90.6
2022-10-05T17:32:35.711Z,90.6
2022-10-05T17:34:41.548Z,90.6
2022-10-05T17:36:50.329Z,90.8
2022-10-05T17:38:56.128Z,90.8
2022-10-05T17:41:01.938Z,90.9
2022-10-05T17:42:06.344Z,91
2022-10-05T17:44:12.178Z,91.1
2022-10-05T17:48:23.965Z,91.2
2022-10-05T17:50:32.550Z,91.4
2022-10-05T17:52:38.373Z,91.4
2022-10-05T17:54:44.161Z,91.5
2022-10-05T17:58:55.768Z,91.6
2022-10-05T18:01:01.592Z,91.6
2022-10-05T18:03:07.444Z,91.7
2022-10-05T18:05:16.185Z,91.8
2022-10-05T18:07:21.997Z,91.9
2022-10-05T18:09:27.804Z,91.9
2022-10-05T18:11:33.367Z,92
2022-10-05T18:13:39.147Z,91.9
2022-10-05T18:15:45.065Z,92
2022-10-05T18:17:50.815Z,91.9
2022-10-05T18:19:59.598Z,92
2022-10-05T18:22:05.392Z,92
2022-10-05T18:26:17.013Z,92.1
2022-10-05T18:28:22.941Z,92.2
2022-10-05T18:30:28.617Z,92.2
2022-10-05T18:32:34.418Z,92.3
2022-10-05T18:34:43.218Z,92.4
2022-10-05T18:36:49.003Z,92.4
2022-10-05T18:38:54.837Z,92.5
2022-10-05T18:39:59.204Z,92.5
2022-10-05T18:42:05.034Z,92.5
2022-10-05T18:44:10.843Z,92.6
2022-10-05T18:46:16.715Z,92.5
2022-10-05T18:48:25.653Z,92.5
2022-10-05T18:50:31.208Z,92.5
2022-10-05T18:52:37.005Z,92.6
2022-10-05T18:54:42.809Z,92.6
2022-10-05T19:03:09.012Z,92.6
2022-10-05T19:05:29.535Z,92.6
2022-10-05T19:09:26.434Z,92.6
2022-10-05T19:11:32.229Z,92.6
2022-10-05T19:13:38.028Z,92.7
2022-10-05T19:15:43.937Z,92.6
2022-10-05T19:17:52.631Z,92.7
2022-10-05T19:19:58.443Z,92.7
2022-10-05T19:22:04.238Z,92.8
2022-10-05T19:26:15.823Z,92.9
2022-10-05T19:28:21.717Z,92.9
2022-10-05T19:30:27.472Z,93
2022-10-05T19:32:36.229Z,93.1
2022-10-05T19:34:42.040Z,93.2
2022-10-05T19:36:47.840Z,93.2
2022-10-05T19:39:20.685Z,93
2022-10-05T19:43:32.279Z,93.2
2022-10-05T19:45:41.087Z,93.3
2022-10-05T19:47:46.863Z,93.4
2022-10-05T19:49:52.670Z,93.7
2022-10-05T19:51:58.478Z,93.8
2022-10-05T19:54:04.264Z,93.8
2022-10-05T19:56:10.069Z,93.9
2022-10-05T19:58:15.880Z,93.9
2022-10-05T20:00:24.696Z,94.1
2022-10-05T20:04:36.277Z,94.3
2022-10-05T20:06:42.088Z,94.3
2022-10-05T20:08:47.888Z,94.5
2022-10-05T20:10:53.719Z,94.5
2022-10-05T20:12:59.513Z,94.7
2022-10-05T20:15:08.297Z,94.9
2022-10-05T20:17:14.097Z,95
2022-10-05T20:19:19.914Z,95.3
2022-10-05T20:21:25.745Z,97.2
2022-10-05T20:23:31.588Z,98.2
2022-10-05T20:25:37.361Z,98.5
2022-10-05T20:27:43.186Z,99.1
2022-10-05T20:29:51.962Z,99.6
2022-10-05T20:31:57.788Z,99.9
2022-10-05T20:34:03.619Z,99.9
2022-10-05T20:35:07.999Z,99.9
2022-10-05T20:37:13.826Z,99.9
2022-10-05T20:39:19.610Z,99.9
2022-10-05T20:41:25.433Z,99.9
2022-10-05T20:43:34.221Z,99.9
2022-10-05T20:45:40.027Z,99.9
2022-10-05T20:47:45.843Z,99.9
2022-10-05T20:49:51.661Z,99.9
2022-10-05T20:51:57.476Z,99.9
2022-10-05T20:54:03.261Z,99.9
2022-10-05T20:56:09.088Z,99.9
2022-10-05T20:58:17.866Z,99.9
2022-10-05T21:00:23.703Z,99.9
2022-10-05T21:02:29.479Z,99.9
2022-10-05T21:04:40.301Z,99.9
2022-10-05T21:06:41.097Z,99.9
2022-10-05T21:08:46.908Z,99.9
2022-10-05T21:13:01.496Z,99.9
2022-10-05T21:17:13.124Z,99.9
2022-10-05T21:21:24.722Z,99.9
2022-10-05T21:23:30.532Z,99.9
2022-10-05T21:25:36.304Z,99.9
2022-10-05T21:27:45.102Z,99.9
2022-10-05T21:29:50.894Z,99.9
2022-10-05T21:31:56.742Z,99.9
2022-10-05T21:33:01.142Z,99.9
2022-10-05T21:35:06.925Z,99.9
2022-10-05T21:37:12.719Z,99.9
2022-10-05T21:39:18.514Z,99.9
2022-10-05T21:41:27.288Z,99.9
2022-10-05T21:45:38.998Z,99.9
2022-10-05T21:47:44.715Z,99.9
2022-10-05T21:49:50.526Z,99.9
2022-10-05T21:51:56.328Z,99.9
2022-10-05T21:54:02.134Z,99.9
2022-10-05T21:58:16.705Z,99.9
2022-10-05T22:00:22.505Z,99.9
2022-10-05T22:02:28.309Z,99.9
2022-10-05T22:04:34.124Z,99.9
2022-10-05T22:06:39.937Z,99.9
2022-10-05T22:08:45.718Z,99.9
2022-10-05T22:10:54.496Z,99.9
2022-10-05T22:13:00.308Z,99.9
2022-10-05T22:17:11.926Z,99.9
2022-10-05T22:19:17.698Z,99.9
2022-10-05T22:21:23.510Z,99.9
2022-10-05T22:23:29.305Z,99.9
2022-10-05T22:27:43.890Z,99.9
2022-10-05T22:30:54.084Z,99.9
2022-10-05T22:32:59.892Z,99.9
2022-10-05T22:35:09.210Z,99.9
2022-10-05T22:37:11.499Z,99.9
2022-10-05T22:39:20.279Z,99.9
2022-10-05T22:41:26.096Z,99.9
2022-10-05T22:43:31.892Z,99.9
2022-10-05T22:45:37.791Z,99.9
2022-10-05T22:47:43.482Z,99.9
2022-10-05T22:49:49.279Z,99.9
2022-10-05T22:51:55.065Z,99.9
2022-10-05T22:54:03.851Z,99.9
2022-10-05T22:56:09.656Z,99.9
2022-10-05T22:58:15.426Z,99.9
2022-10-05T23:00:27.561Z,99.9
2022-10-05T23:02:27.082Z,99.9
2022-10-05T23:04:32.814Z,99.9
2022-10-05T23:06:38.616Z,99.9
2022-10-05T23:08:47.397Z,99.9
2022-10-05T23:10:53.188Z,99.9
2022-10-05T23:13:01.048Z,99.9
2022-10-05T23:15:04.770Z,99.9
2022-10-05T23:17:10.558Z,99.9
2022-10-05T23:19:16.330Z,99.9
2022-10-05T23:21:22.123Z,99.9
2022-10-05T23:23:30.892Z,99.9
2022-10-05T23:25:36.680Z,99.9
2022-10-05T23:27:42.463Z,99.9
2022-10-05T23:34:23.451Z,99.9
2022-10-05T23:40:43.795Z,99.9
2022-10-05T23:44:55.371Z,99.9
2022-10-05T23:55:27.289Z,99.9
2022-10-05T23:57:33.099Z,99.9
2022-10-05T23:59:38.852Z,99.9
